Time;durP1;ratioP1;P1;durP2;ratioP2;P2;SDS_P1;SDS_P2;PMS_P1;PMS_P2;Temp;Humidity;BMP_temperature;BMP_pressure;BME280_temperature;BME280_humidity;BME280_pressure;Samples;Min_cycle;Max_cycle;Signal;HPM_P1;HPM_P2
2022/10/03 00:03:11;;;;;;;1.95;0.68;;;;;;;-145.06;24.23;60892.56;4892323;28;20068;-93
2022/10/03 00:06:10;;;;;;;0.98;0.75;;;;;;;-145.06;24.23;60892.56;4884245;28;20360;-91
2022/10/03 00:09:12;;;;;;;1.88;0.50;;;;;;;-145.06;24.23;60892.56;4887282;28;20024;-90
2022/10/03 00:11:57;;;;;;;0.90;0.50;;;;;;;-145.06;24.23;60892.56;4890998;28;20029;-92
2022/10/03 00:15:02;;;;;;;3.67;0.88;;;;;;;11.71;24.23;60892.56;4885179;28;20033;-91
2022/10/03 00:18:06;;;;;;;0.85;0.50;;;;;;;11.98;24.23;60892.56;4892690;28;20099;-92
2022/10/03 00:21:27;;;;;;;0.95;0.32;;;;;;;11.66;24.23;60892.56;4894161;28;20123;-91
2022/10/03 00:24:44;;;;;;;1.42;0.43;;;;;;;-145.06;24.23;60892.56;4884499;28;20040;-92
2022/10/03 00:27:46;;;;;;;1.00;0.50;;;;;;;-145.06;24.23;60892.56;4884122;28;20025;-91
2022/10/03 00:30:42;;;;;;;2.00;0.80;;;;;;;187.52;24.23;60892.56;4879179;28;20037;-93
2022/10/03 00:33:54;;;;;;;0.85;0.60;;;;;;;11.70;24.23;60892.56;4891318;28;20062;-92
2022/10/03 00:36:37;;;;;;;2.03;0.60;;;;;;;11.67;24.23;60892.56;4881218;28;20032;-92
2022/10/03 00:39:31;;;;;;;0.82;0.45;;;;;;;-145.06;24.23;60892.56;4890961;28;20045;-90
2022/10/03 00:42:20;;;;;;;1.05;0.70;;;;;;;-145.06;24.23;60892.56;4899055;28;20557;-92
2022/10/03 00:45:09;;;;;;;1.13;0.53;;;;;;;15.88;24.23;60892.56;4890024;28;20040;-92
2022/10/03 00:48:05;;;;;;;1.20;0.52;;;;;;;-145.06;24.23;60892.56;4886776;28;20299;-90
2022/10/03 00:51:15;;;;;;;1.40;0.40;;;;;;;-145.06;24.23;60892.56;4892495;28;20111;-90
2022/10/03 00:54:22;;;;;;;0.50;0.30;;;;;;;-145.06;24.23;60892.56;4899402;28;20037;-90
2022/10/03 00:57:01;;;;;;;3.25;0.70;;;;;;;-145.06;24.23;60892.56;4877908;28;20017;-89
2022/10/03 01:00:17;;;;;;;1.65;0.47;;;;;;;-145.06;24.23;60892.56;4893799;28;20506;-91
2022/10/03 01:02:57;;;;;;;1.17;0.70;;;;;;;-145.06;24.23;60892.56;4888467;28;20482;-90
2022/10/03 01:05:45;;;;;;;1.83;0.47;;;;;;;-145.06;24.23;60892.56;4882141;28;20024;-90
2022/10/03 01:08:33;;;;;;;0.75;0.40;;;;;;;-145.06;24.23;60892.56;4893386;28;20067;-90
2022/10/03 01:11:36;;;;;;;1.63;0.55;;;;;;;21.08;24.23;60892.56;4885459;28;20051;-89
2022/10/03 01:14:36;;;;;;;1.95;0.50;;;;;;;-145.06;24.23;60892.56;4893529;28;20028;-90
2022/10/03 01:17:46;;;;;;;1.80;0.63;;;;;;;-145.06;24.23;60892.56;4884660;28;20029;-91
2022/10/03 01:20:57;;;;;;;3.10;0.80;;;;;;;-145.06;24.23;60892.56;4888535;28;20746;-89
2022/10/03 01:23:39;;;;;;;1.52;0.70;;;;;;;-145.06;24.23;60892.56;4891040;28;20366;-89
2022/10/03 01:26:47;;;;;;;1.25;0.77;;;;;;;-145.06;24.23;60892.56;4887360;28;20025;-90
2022/10/03 01:33:01;;;;;;;1.10;0.60;;;;;;;-145.06;24.23;60892.56;4891390;28;20036;-90
2022/10/03 01:36:01;;;;;;;0.95;0.45;;;;;;;-145.06;24.23;60892.56;4880560;28;20036;-91
2022/10/03 01:38:47;;;;;;;2.33;0.70;;;;;;;-145.06;24.23;60892.56;4890699;28;20096;-89
2022/10/03 01:42:10;;;;;;;1.02;0.60;;;;;;;-145.06;24.23;60892.56;4884518;28;20124;-92
2022/10/03 01:45:13;;;;;;;0.57;0.40;;;;;;;-145.06;24.23;60892.56;4872729;28;20493;-91
2022/10/03 01:48:03;;;;;;;0.52;0.45;;;;;;;-145.06;24.23;60892.56;4890363;28;20364;-90
2022/10/03 01:51:06;;;;;;;2.75;0.77;;;;;;;-145.06;24.23;60892.56;4885339;28;20487;-90
2022/10/03 01:54:06;;;;;;;0.52;0.50;;;;;;;-145.06;24.23;60892.56;4889360;28;20067;-89
2022/10/03 01:56:57;;;;;;;1.00;0.68;;;;;;;-145.06;24.23;60892.56;4886831;28;20028;-91
2022/10/03 01:59:50;;;;;;;1.17;0.68;;;;;;;-145.06;24.23;60892.56;4884796;28;20036;-90
2022/10/03 02:03:04;;;;;;;0.77;0.70;;;;;;;-145.06;24.23;60892.56;4882426;28;20032;-90
2022/10/03 02:06:08;;;;;;;0.88;0.65;;;;;;;-145.06;24.23;60892.56;4882658;28;20052;-90
2022/10/03 02:08:57;;;;;;;1.33;0.57;;;;;;;-145.06;24.23;60892.56;4891140;28;20028;-90
2022/10/03 02:11:49;;;;;;;1.00;0.60;;;;;;;-145.06;24.23;60892.56;4880659;28;20036;-88
2022/10/03 02:14:48;;;;;;;0.68;0.50;;;;;;;-145.06;24.23;60892.56;4884415;28;20064;-90
2022/10/03 02:17:48;;;;;;;1.35;0.77;;;;;;;-145.06;24.23;60892.56;4881954;28;20478;-90
2022/10/03 02:20:44;;;;;;;1.20;0.80;;;;;;;-145.06;24.23;60892.56;4889084;28;20029;-89
2022/10/03 02:23:39;;;;;;;1.30;0.80;;;;;;;-145.06;24.23;60892.56;4886926;28;20486;-89
2022/10/03 02:26:37;;;;;;;0.70;0.50;;;;;;;-145.06;24.23;60892.56;4887013;28;20466;-89
2022/10/03 02:29:37;;;;;;;2.00;0.80;;;;;;;-145.06;24.23;60892.56;4888395;28;20032;-91
2022/10/03 02:32:32;;;;;;;1.25;0.70;;;;;;;-145.06;24.23;60892.56;4885974;28;20028;-89
2022/10/03 02:35:48;;;;;;;1.27;0.73;;;;;;;10.68;24.23;60892.56;4884563;28;20040;-91
2022/10/03 02:38:52;;;;;;;0.80;0.70;;;;;;;10.68;24.23;60892.56;4889127;28;20028;-92
2022/10/03 02:42:00;;;;;;;1.20;0.75;;;;;;;-145.06;24.23;60892.56;4883477;28;20029;-91
2022/10/03 02:45:17;;;;;;;0.85;0.80;;;;;;;10.68;24.23;60892.56;4887846;28;20364;-89
2022/10/03 02:48:23;;;;;;;1.77;0.70;;;;;;;-145.06;24.23;60892.56;4888521;28;20635;-89
2022/10/03 02:51:24;;;;;;;1.38;0.95;;;;;;;10.60;24.23;60892.56;4880411;28;20029;-91
2022/10/03 02:54:09;;;;;;;1.05;0.70;;;;;;;10.68;24.23;60892.56;4889648;28;20029;-90
2022/10/03 02:57:10;;;;;;;1.70;0.90;;;;;;;10.68;24.23;60892.56;4882783;28;20029;-91
2022/10/03 03:00:18;;;;;;;0.93;0.70;;;;;;;10.52;24.23;60892.56;4892318;28;20040;-91
2022/10/03 03:03:15;;;;;;;1.40;1.10;;;;;;;10.68;24.23;60892.56;4886900;28;20088;-90
2022/10/03 03:06:16;;;;;;;2.28;0.88;;;;;;;10.68;24.23;60892.56;4887279;28;20033;-90
2022/10/03 03:09:46;;;;;;;1.63;0.85;;;;;;;10.52;24.23;60892.56;4891265;28;20036;-90
2022/10/03 03:12:43;;;;;;;1.05;0.75;;;;;;;10.52;24.23;60892.56;4886415;28;20551;-89
2022/10/03 03:15:43;;;;;;;1.60;0.95;;;;;;;-145.06;24.23;60892.56;4893053;28;20040;-90
2022/10/03 03:18:22;;;;;;;0.98;0.68;;;;;;;-145.06;24.23;60892.56;4900262;28;20059;-90
2022/10/03 03:21:17;;;;;;;2.15;0.90;;;;;;;-145.06;24.23;60892.56;4887001;28;20036;-91
2022/10/03 03:24:11;;;;;;;1.60;1.00;;;;;;;-145.06;24.23;60892.56;4889901;28;20354;-91
2022/10/03 03:27:18;;;;;;;2.25;1.08;;;;;;;-145.06;24.23;60892.56;4892165;28;20033;-90
2022/10/03 03:30:17;;;;;;;2.55;0.85;;;;;;;-145.06;24.23;60892.56;4890457;28;20032;-91
2022/10/03 03:33:00;;;;;;;1.30;0.80;;;;;;;-145.06;24.23;60892.56;4892541;28;20116;-89
2022/10/03 03:36:32;;;;;;;1.85;0.93;;;;;;;10.68;24.23;60892.56;4885240;28;20021;-89
2022/10/03 03:39:20;;;;;;;1.13;0.80;;;;;;;-145.06;24.23;60892.56;4880195;28;20037;-90
2022/10/03 03:42:24;;;;;;;1.48;0.88;;;;;;;-145.06;24.23;60892.56;4892707;28;20041;-91
2022/10/03 03:45:18;;;;;;;1.00;0.80;;;;;;;-145.06;24.23;60892.56;4893746;28;20434;-91
2022/10/03 03:48:11;;;;;;;2.53;1.23;;;;;;;-145.06;24.23;60892.56;4891424;28;20178;-89
2022/10/03 03:51:02;;;;;;;1.70;1.00;;;;;;;-145.06;24.23;60892.56;4886196;28;20103;-90
2022/10/03 03:53:47;;;;;;;1.30;0.85;;;;;;;-145.06;24.23;60892.56;4891922;28;20059;-89
2022/10/03 03:56:29;;;;;;;1.35;1.00;;;;;;;-145.06;24.23;60892.56;4889979;28;20025;-89
2022/10/03 03:59:36;;;;;;;1.60;1.00;;;;;;;-145.06;24.23;60892.56;4880875;28;20538;-90
2022/10/03 04:02:52;;;;;;;0.80;0.70;;;;;;;-145.06;24.23;60892.56;4875842;28;20028;-91
2022/10/03 04:05:40;;;;;;;1.05;0.70;;;;;;;-145.06;24.23;60892.56;4890248;28;20021;-91
2022/10/03 04:08:32;;;;;;;1.50;1.25;;;;;;;-145.06;24.23;60892.56;4889576;28;20084;-90
2022/10/03 04:11:32;;;;;;;1.70;0.82;;;;;;;-145.06;24.23;60892.56;4885696;28;20029;-90
2022/10/03 04:14:29;;;;;;;0.70;0.70;;;;;;;-145.06;24.23;60892.56;4889292;28;20659;-90
2022/10/03 04:21:05;;;;;;;0.98;0.82;;;;;;;21.08;24.23;60892.56;4891207;28;20036;-90
2022/10/03 04:23:56;;;;;;;2.72;1.15;;;;;;;-145.06;24.23;60892.56;4891136;28;20033;-90
2022/10/03 04:26:58;;;;;;;1.77;0.98;;;;;;;-145.06;24.23;60892.56;4886784;28;20025;-90
2022/10/03 04:29:45;;;;;;;2.85;0.82;;;;;;;-145.06;24.23;60892.56;4885332;28;20033;-90
2022/10/03 04:32:56;;;;;;;1.08;0.73;;;;;;;-145.06;24.23;60892.56;4892183;28;20036;-90
2022/10/03 04:36:13;;;;;;;1.48;0.90;;;;;;;-145.06;24.23;60892.56;4888136;28;20025;-91
2022/10/03 04:39:19;;;;;;;2.08;1.02;;;;;;;-145.06;24.23;60892.56;4887689;28;20052;-90
2022/10/03 04:42:26;;;;;;;1.70;1.05;;;;;;;-145.06;24.23;60892.56;4897275;28;20101;-91
2022/10/03 04:45:27;;;;;;;0.90;0.50;;;;;;;-145.06;24.23;60892.56;4891602;28;20498;-89
2022/10/03 04:48:09;;;;;;;1.60;0.95;;;;;;;-145.06;24.23;60892.56;4881783;28;20036;-89
2022/10/03 04:51:01;;;;;;;2.08;0.90;;;;;;;-145.06;24.23;60892.56;4891832;28;20036;-91
2022/10/03 04:53:55;;;;;;;1.80;1.00;;;;;;;-145.06;24.23;60892.56;4891006;28;20541;-90
2022/10/03 04:57:02;;;;;;;1.23;0.98;;;;;;;10.68;24.23;60892.56;4890666;28;20056;-90
2022/10/03 04:59:49;;;;;;;2.20;1.17;;;;;;;-145.06;24.23;60892.56;4886854;28;20036;-89
2022/10/03 05:03:00;;;;;;;1.83;0.90;;;;;;;-145.06;24.23;60892.56;4883953;28;20072;-90
2022/10/03 05:05:47;;;;;;;3.03;1.13;;;;;;;-145.06;24.23;60892.56;4888784;28;20371;-89
2022/10/03 05:08:47;;;;;;;1.45;0.80;;;;;;;-145.06;24.23;60892.56;4892756;28;20115;-90
2022/10/03 05:11:35;;;;;;;1.35;0.90;;;;;;;-145.06;24.23;60892.56;4887237;28;20029;-90
2022/10/03 05:14:52;;;;;;;2.17;1.10;;;;;;;-145.06;24.23;60892.56;4888358;28;20364;-90
2022/10/03 05:17:57;;;;;;;1.35;0.85;;;;;;;-145.06;24.23;60892.56;4874495;28;20021;-90
2022/10/03 05:20:51;;;;;;;2.53;1.10;;;;;;;-145.06;24.23;60892.56;4889557;28;20037;-90
2022/10/03 05:23:41;;;;;;;1.10;0.80;;;;;;;-145.06;24.23;60892.56;4886812;28;20029;-92
2022/10/03 05:26:26;;;;;;;1.90;0.88;;;;;;;-145.06;24.23;60892.56;4882834;28;20115;-90
2022/10/03 05:29:24;;;;;;;1.02;0.70;;;;;;;10.36;24.23;60892.56;4884541;28;20588;-91
2022/10/03 05:32:19;;;;;;;0.88;0.70;;;;;;;-145.06;24.23;60892.56;4875764;28;20072;-90
2022/10/03 05:35:22;;;;;;;1.08;0.75;;;;;;;-145.06;24.23;60892.56;4890175;28;20052;-90
2022/10/03 05:38:08;;;;;;;1.85;0.80;;;;;;;-145.06;24.23;60892.56;4886841;28;20535;-89
2022/10/03 05:41:06;;;;;;;1.92;1.13;;;;;;;-145.06;24.23;60892.56;4887689;28;20032;-90
2022/10/03 05:43:48;;;;;;;1.70;0.90;;;;;;;-145.06;24.23;60892.56;4888811;28;20024;-89
2022/10/03 05:46:48;;;;;;;1.35;0.98;;;;;;;-145.06;24.23;60892.56;4885405;28;20028;-89
2022/10/03 05:50:04;;;;;;;1.23;0.93;;;;;;;-145.06;24.23;60892.56;4878570;28;20037;-90
2022/10/03 05:52:55;;;;;;;1.35;0.73;;;;;;;-145.06;24.23;60892.56;4880698;28;20056;-90
2022/10/03 05:55:52;;;;;;;1.42;0.75;;;;;;;-145.06;24.23;60892.56;4879312;28;20033;-90
2022/10/03 05:58:56;;;;;;;1.58;0.80;;;;;;;-145.06;24.23;60892.56;4887765;28;20482;-91
2022/10/03 06:01:57;;;;;;;1.40;0.88;;;;;;;-145.06;24.23;60892.56;4887393;28;20024;-91
2022/10/03 06:04:36;;;;;;;1.25;0.70;;;;;;;-145.06;24.23;60892.56;4880304;28;20025;-91
2022/10/03 06:07:24;;;;;;;1.20;0.77;;;;;;;-145.06;24.23;60892.56;4880110;28;20028;-91
2022/10/03 06:10:41;;;;;;;1.30;0.60;;;;;;;-145.06;24.23;60892.56;4893103;28;20024;-91
2022/10/03 06:13:41;;;;;;;0.70;0.60;;;;;;;-145.06;24.23;60892.56;4888188;28;20063;-91
2022/10/03 06:17:08;;;;;;;1.20;0.60;;;;;;;-145.06;24.23;60892.56;4889128;28;20016;-90
2022/10/03 06:19:56;;;;;;;0.80;0.70;;;;;;;-145.06;24.23;60892.56;4888271;28;20041;-91
2022/10/03 06:23:06;;;;;;;2.00;0.68;;;;;;;-145.06;24.23;60892.56;4885262;28;20397;-90
2022/10/03 06:25:54;;;;;;;;;;;;;;;-145.06;24.23;60892.56;4883746;28;20040;-90
2022/10/03 06:28:50;;;;;;;0.90;0.80;;;;;;;-145.06;24.23;60892.56;4882864;28;19916;-92
2022/10/03 06:31:49;;;;;;;2.33;0.93;;;;;;;-145.06;24.23;60892.56;4888376;28;20032;-90
2022/10/03 06:34:57;;;;;;;1.90;1.00;;;;;;;-145.06;24.23;60892.56;4888394;28;20029;-90
2022/10/03 06:38:12;;;;;;;1.05;0.73;;;;;;;10.44;24.23;60892.56;4878142;28;20037;-91
2022/10/03 06:41:16;;;;;;;1.25;1.00;;;;;;;10.48;24.23;60892.56;4885050;28;20057;-90
2022/10/03 06:44:05;;;;;;;1.40;1.10;;;;;;;10.52;24.23;60892.56;4890218;28;20032;-91
2022/10/03 06:47:12;;;;;;;1.05;0.52;;;;;;;10.58;24.23;60892.56;4886146;28;20383;-90
2022/10/03 06:50:12;;;;;;;1.20;0.50;;;;;;;21.08;24.23;60892.56;4883173;28;20116;-90
2022/10/03 06:53:00;;;;;;;2.33;1.00;;;;;;;-145.06;24.23;60892.56;4893223;28;20107;-92
2022/10/03 06:56:04;;;;;;;1.35;0.80;;;;;;;-145.06;24.23;60892.56;4889326;28;20067;-91
2022/10/03 06:59:04;;;;;;;2.13;0.60;;;;;;;-145.06;24.23;60892.56;4898692;28;20036;-90
2022/10/03 07:01:52;;;;;;;1.95;0.75;;;;;;;-145.06;24.23;60892.56;4893762;28;20028;-92
2022/10/03 07:04:53;;;;;;;2.85;1.10;;;;;;;-145.06;24.23;60892.56;4894480;28;20032;-91
2022/10/03 07:07:44;;;;;;;2.17;1.00;;;;;;;-145.06;24.23;60892.56;4881373;28;20427;-91
2022/10/03 07:10:35;;;;;;;1.33;0.85;;;;;;;-145.06;24.23;60892.56;4892990;28;20024;-90
2022/10/03 07:13:18;;;;;;;1.63;0.70;;;;;;;-145.06;24.23;60892.56;4889347;28;20060;-90
2022/10/03 07:16:17;;;;;;;1.88;0.95;;;;;;;-145.06;24.23;60892.56;4891868;28;20040;-90
2022/10/03 07:19:25;;;;;;;2.05;0.80;;;;;;;-145.06;24.23;60892.56;4893074;28;20048;-91
2022/10/03 07:22:24;;;;;;;2.55;0.80;;;;;;;-145.06;24.23;60892.56;4884038;28;20032;-92
2022/10/03 07:25:34;;;;;;;1.45;0.77;;;;;;;-145.06;24.23;60892.56;4882281;28;20032;-91
2022/10/03 07:28:50;;;;;;;1.83;0.85;;;;;;;15.88;24.23;60892.56;4896589;28;20781;-91
2022/10/03 07:31:56;;;;;;;4.15;0.90;;;;;;;11.80;24.23;60892.56;4893949;28;20387;-90
2022/10/03 07:35:01;;;;;;;1.88;0.65;;;;;;;11.94;24.23;60892.56;4898966;28;20024;-91
2022/10/03 07:41:06;;;;;;;;;;;;;;;-145.06;24.23;60892.56;4893247;28;20072;-91
2022/10/03 07:44:10;;;;;;;1.67;0.80;;;;;;;-145.06;24.23;60892.56;4892519;28;19916;-92
2022/10/03 07:47:08;;;;;;;1.83;0.63;;;;;;;-145.06;24.23;60892.56;4882681;28;20467;-91
2022/10/03 07:50:15;;;;;;;1.45;0.80;;;;;;;-145.06;24.23;60892.56;4893248;28;20032;-91
2022/10/03 07:52:59;;;;;;;2.17;1.20;;;;;;;-145.06;24.23;60892.56;4886186;28;20037;-90
2022/10/03 07:56:05;;;;;;;2.60;0.98;;;;;;;-145.06;24.23;60892.56;4885659;28;20032;-91
2022/10/03 07:58:58;;;;;;;1.40;0.73;;;;;;;-145.06;24.23;60892.56;4890702;28;20111;-91
2022/10/03 08:01:37;;;;;;;2.35;0.93;;;;;;;-145.06;24.23;60892.56;4888644;28;20036;-91
2022/10/03 08:04:42;;;;;;;2.55;0.70;;;;;;;-145.06;24.23;60892.56;4892288;28;20107;-91
2022/10/03 08:07:39;;;;;;;1.52;0.80;;;;;;;-145.06;24.23;60892.56;4886957;28;20028;-91
2022/10/03 08:10:49;;;;;;;2.05;1.00;;;;;;;-145.06;24.23;60892.56;4897841;28;20032;-90
2022/10/03 08:13:53;;;;;;;1.63;0.65;;;;;;;-145.06;24.23;60892.56;4891539;28;20017;-92
2022/10/03 08:16:51;;;;;;;1.88;0.80;;;;;;;-145.06;24.23;60892.56;4883342;28;20048;-91
2022/10/03 08:20:06;;;;;;;3.88;0.80;;;;;;;-145.06;24.23;60892.56;4898624;28;20033;-90
2022/10/03 08:22:52;;;;;;;2.22;0.65;;;;;;;-145.06;24.23;60892.56;4893503;28;20020;-91
2022/10/03 08:26:05;;;;;;;1.17;0.73;;;;;;;-145.06;24.23;60892.56;4893902;28;20037;-91
2022/10/03 08:29:03;;;;;;;1.95;0.55;;;;;;;-145.06;24.23;60892.56;4886121;28;20020;-90
2022/10/03 08:32:13;;;;;;;1.48;0.50;;;;;;;-145.06;24.23;60892.56;4891727;28;20028;-90
2022/10/03 08:35:24;;;;;;;1.58;0.75;;;;;;;-145.06;24.23;60892.56;4893977;28;20029;-90
2022/10/03 08:38:11;;;;;;;1.02;0.57;;;;;;;-145.06;24.23;60892.56;4891455;28;20447;-90
2022/10/03 08:40:56;;;;;;;1.13;0.45;;;;;;;-145.06;24.23;60892.56;4890615;28;20056;-91
2022/10/03 08:43:49;;;;;;;2.60;0.60;;;;;;;-145.06;24.23;60892.56;4894059;28;20029;-91
2022/10/03 08:46:40;;;;;;;1.02;0.50;;;;;;;-145.06;24.23;60892.56;4883961;28;20017;-90
2022/10/03 08:49:52;;;;;;;3.05;0.57;;;;;;;-145.06;24.23;60892.56;4888473;28;20033;-90
2022/10/03 08:53:02;;;;;;;3.05;0.90;;;;;;;-145.06;24.23;60892.56;4892692;28;20032;-91
2022/10/03 08:55:57;;;;;;;1.35;0.70;;;;;;;14.58;24.23;60892.56;4893477;28;20367;-90
2022/10/03 08:59:07;;;;;;;1.80;0.80;;;;;;;14.31;24.23;60892.56;4891618;28;20048;-90
2022/10/03 09:02:23;;;;;;;1.85;0.65;;;;;;;14.37;24.23;60892.56;4889061;28;20032;-91
2022/10/03 09:05:39;;;;;;;0.93;0.52;;;;;;;14.44;24.23;60892.56;4886244;28;20020;-90
2022/10/03 09:08:27;;;;;;;4.05;0.82;;;;;;;14.49;24.23;60892.56;4887564;28;20080;-91
2022/10/03 09:11:34;;;;;;;2.58;0.70;;;;;;;14.54;24.23;60892.56;4892410;28;20040;-91
2022/10/03 09:14:51;;;;;;;1.52;0.52;;;;;;;-145.06;24.23;60892.56;4887873;28;20036;-90
2022/10/03 09:18:05;;;;;;;1.50;0.65;;;;;;;-145.06;24.23;60892.56;4886840;28;20013;-91
2022/10/03 09:20:53;;;;;;;1.35;0.52;;;;;;;-145.06;24.23;60892.56;4884152;28;20052;-92
2022/10/03 09:24:03;;;;;;;1.45;0.60;;;;;;;-145.06;24.23;60892.56;4889959;28;20095;-91
2022/10/03 09:26:48;;;;;;;4.38;0.90;;;;;;;-145.06;24.23;60892.56;4887164;28;20025;-90
2022/10/03 09:29:50;;;;;;;1.60;0.63;;;;;;;-145.06;24.23;60892.56;4891436;28;20028;-90
2022/10/03 09:33:07;;;;;;;1.30;0.40;;;;;;;-145.06;24.23;60892.56;4891772;28;20032;-91
2022/10/03 09:36:08;;;;;;;1.13;0.63;;;;;;;-145.06;24.23;60892.56;4889611;28;20040;-90
2022/10/03 09:39:28;;;;;;;2.25;0.60;;;;;;;-145.06;24.23;60892.56;4892234;28;20585;-91
2022/10/03 09:42:41;;;;;;;2.17;0.60;;;;;;;-145.06;24.23;60892.56;4883197;28;20029;-91
2022/10/03 09:45:39;;;;;;;1.33;0.60;;;;;;;-145.06;24.23;60892.56;4885052;28;20084;-92
2022/10/03 09:48:38;;;;;;;1.48;0.70;;;;;;;-145.06;24.23;60892.56;4891661;28;20033;-91
2022/10/03 09:51:16;;;;;;;2.67;0.63;;;;;;;-145.06;24.23;60892.56;4887440;28;20032;-92
2022/10/03 09:54:12;;;;;;;2.53;0.90;;;;;;;15.88;24.23;60892.56;4886139;28;20099;-90
2022/10/03 09:57:37;;;;;;;1.55;0.75;;;;;;;15.68;24.23;60892.56;4888801;28;20113;-91
2022/10/03 10:00:19;;;;;;;1.30;0.50;;;;;;;15.75;24.23;60892.56;4885582;28;20036;-91
2022/10/03 10:03:29;;;;;;;1.08;0.57;;;;;;;15.88;24.23;60892.56;4886802;28;20033;-91
2022/10/03 10:06:15;;;;;;;2.55;0.50;;;;;;;-145.06;24.23;60892.56;4888044;28;20375;-90
2022/10/03 10:09:21;;;;;;;1.40;0.40;;;;;;;-145.06;24.23;60892.56;4892245;28;20608;-91
2022/10/03 10:12:12;;;;;;;1.60;0.45;;;;;;;-145.06;24.23;60892.56;4897640;28;20024;-91
2022/10/03 10:14:58;;;;;;;1.10;0.50;;;;;;;-145.06;24.23;60892.56;4885477;28;20032;-90
2022/10/03 10:17:52;;;;;;;3.63;0.50;;;;;;;-145.06;24.23;60892.56;4884232;28;20056;-91
2022/10/03 10:21:08;;;;;;;1.55;0.50;;;;;;;16.53;24.23;60892.56;4889521;28;20036;-91
2022/10/03 10:23:51;;;;;;;1.05;0.38;;;;;;;-145.06;24.23;60892.56;4887197;28;20426;-91
2022/10/03 10:27:19;;;;;;;1.30;0.40;;;;;;;-145.06;24.23;60892.56;4888615;28;20024;-92
2022/10/03 10:30:26;;;;;;;2.85;0.65;;;;;;;-145.06;24.23;60892.56;4881662;28;20032;-91
2022/10/03 10:33:23;;;;;;;1.95;0.40;;;;;;;-145.06;24.23;60892.56;4890181;28;20115;-91
2022/10/03 10:36:21;;;;;;;0.55;0.20;;;;;;;-145.06;24.23;60892.56;4887853;28;20447;-91
2022/10/03 10:39:21;;;;;;;1.30;0.30;;;;;;;-145.06;24.23;60892.56;4887160;28;20483;-90
2022/10/03 10:42:03;;;;;;;4.88;0.52;;;;;;;-145.06;24.23;60892.56;4889751;28;20052;-91
2022/10/03 10:45:16;;;;;;;1.42;0.30;;;;;;;-145.06;24.23;60892.56;4889293;28;20032;-91
2022/10/03 10:48:37;;;;;;;1.42;0.30;;;;;;;-145.06;24.23;60892.56;4889363;28;20759;-92
2022/10/03 10:51:28;;;;;;;0.77;0.30;;;;;;;-145.06;24.23;60892.56;4871182;28;20048;-91
2022/10/03 10:54:32;;;;;;;2.10;0.50;;;;;;;-145.06;24.23;60892.56;4882709;28;20029;-90
2022/10/03 10:57:39;;;;;;;0.40;0.20;;;;;;;-145.06;24.23;60892.56;4885653;28;20028;-91
2022/10/03 11:00:25;;;;;;;0.70;0.20;;;;;;;-145.06;24.23;60892.56;4901917;28;20054;-90
2022/10/03 11:03:58;;;;;;;1.17;0.25;;;;;;;-145.06;24.23;60892.56;4884294;28;20028;-91
2022/10/03 11:06:52;;;;;;;1.60;0.32;;;;;;;-145.06;24.23;60892.56;4876689;28;20032;-92
2022/10/03 11:10:09;;;;;;;0.70;0.30;;;;;;;-145.06;24.23;60892.56;4883780;28;20136;-92
2022/10/03 11:12:55;;;;;;;1.20;0.40;;;;;;;-145.06;24.23;60892.56;4887001;28;20032;-92
2022/10/03 11:15:49;;;;;;;0.65;0.30;;;;;;;-145.06;24.23;60892.56;4885845;28;20060;-91
2022/10/03 11:19:05;;;;;;;0.43;0.25;;;;;;;-145.06;24.23;60892.56;4898546;28;20618;-91
2022/10/03 11:22:17;;;;;;;1.83;0.30;;;;;;;-145.06;24.23;60892.56;4883844;28;20036;-92
2022/10/03 11:25:12;;;;;;;0.47;0.20;;;;;;;-145.06;24.23;60892.56;4879715;28;20574;-91
2022/10/03 11:28:03;;;;;;;1.65;0.60;;;;;;;-145.06;24.23;60892.56;4890160;28;20048;-91
2022/10/03 11:31:19;;;;;;;0.20;0.20;;;;;;;-145.06;24.23;60892.56;4887723;28;20025;-91
2022/10/03 11:34:36;;;;;;;0.90;0.30;;;;;;;18.27;24.23;60892.56;4881441;28;20499;-90
2022/10/03 11:37:37;;;;;;;0.10;0.10;;;;;;;18.41;24.23;60892.56;4882311;28;20036;-90
2022/10/03 11:40:31;;;;;;;1.42;0.32;;;;;;;-145.06;24.23;60892.56;4892009;28;20032;-91
2022/10/03 11:43:39;;;;;;;1.60;0.30;;;;;;;-145.06;24.23;60892.56;4893288;28;20490;-91
2022/10/03 11:46:36;;;;;;;0.68;0.30;;;;;;;-145.06;24.23;60892.56;4887891;28;20088;-91
2022/10/03 11:49:45;;;;;;;0.75;0.22;;;;;;;-145.06;24.23;60892.56;4876847;28;20025;-91
2022/10/03 11:52:30;;;;;;;0.60;0.30;;;;;;;-145.06;24.23;60892.56;4882753;28;20033;-91
2022/10/03 11:55:31;;;;;;;0.68;0.20;;;;;;;-145.06;24.23;60892.56;4899443;28;20271;-92
2022/10/03 11:58:33;;;;;;;0.52;0.30;;;;;;;-145.06;24.23;60892.56;4889651;28;20116;-93
2022/10/03 12:01:43;;;;;;;1.20;0.30;;;;;;;-145.06;24.23;60892.56;4889330;28;20024;-91
2022/10/03 12:04:34;;;;;;;0.98;0.30;;;;;;;-145.06;24.23;60892.56;4887472;28;20036;-91
2022/10/03 12:10:56;;;;;;;1.17;0.40;;;;;;;-145.06;24.23;60892.56;4882594;28;20032;-91
2022/10/03 12:13:55;;;;;;;1.45;0.30;;;;;;;-145.06;24.23;60892.56;4892512;28;20032;-91
2022/10/03 12:16:49;;;;;;;0.77;0.30;;;;;;;-145.06;24.23;60892.56;4891928;28;20092;-91
2022/10/03 12:19:50;;;;;;;1.58;0.45;;;;;;;-145.06;24.23;60892.56;4886059;28;20290;-91
2022/10/03 12:22:41;;;;;;;0.47;0.20;;;;;;;-145.06;24.23;60892.56;4883156;28;20024;-92
2022/10/03 12:25:29;;;;;;;2.60;0.47;;;;;;;-145.06;24.23;60892.56;4880038;28;20033;-91
2022/10/03 12:28:20;;;;;;;1.10;0.43;;;;;;;-145.06;24.23;60892.56;4887977;28;20033;-91
2022/10/03 12:31:01;;;;;;;1.25;0.40;;;;;;;-145.06;24.23;60892.56;4880119;28;20583;-91
2022/10/03 12:33:49;;;;;;;0.73;0.25;;;;;;;-145.06;24.23;60892.56;4890590;28;20032;-91
2022/10/03 12:36:52;;;;;;;0.55;0.30;;;;;;;-145.06;24.23;60892.56;4890227;28;20032;-91
2022/10/03 12:39:51;;;;;;;1.23;0.20;;;;;;;19.57;24.23;60892.56;4888408;28;20020;-91
2022/10/03 12:42:57;;;;;;;0.52;0.20;;;;;;;-145.06;24.23;60892.56;4887065;28;20454;-91
2022/10/03 12:45:42;;;;;;;0.60;0.30;;;;;;;-145.06;24.23;60892.56;4889773;28;20399;-91
2022/10/03 12:48:42;;;;;;;0.43;0.22;;;;;;;-145.06;24.23;60892.56;4888510;28;20215;-92
2022/10/03 12:51:25;;;;;;;0.57;0.30;;;;;;;-145.06;24.23;60892.56;4882837;28;20021;-91
2022/10/03 12:54:25;;;;;;;0.68;0.20;;;;;;;-145.06;24.23;60892.56;4886768;28;20032;-91
2022/10/03 12:57:11;;;;;;;0.28;0.20;;;;;;;21.08;24.23;60892.56;4889274;28;20032;-92
2022/10/03 13:00:19;;;;;;;0.60;0.20;;;;;;;19.74;24.23;60892.56;4883107;28;20029;-93
2022/10/03 13:03:30;;;;;;;0.10;0.10;;;;;;;19.72;24.23;60892.56;4882427;28;20411;-91
2022/10/03 13:06:27;;;;;;;0.90;0.40;;;;;;;19.64;24.23;60892.56;4884007;28;20029;-92
2022/10/03 13:09:15;;;;;;;0.73;0.30;;;;;;;187.52;24.23;60892.56;4878967;28;20032;-92
2022/10/03 13:12:05;;;;;;;0.43;0.30;;;;;;;-145.06;24.23;60892.56;4884292;28;20032;-92
2022/10/03 13:15:02;;;;;;;0.90;0.28;;;;;;;21.08;24.23;60892.56;4890846;28;20028;-92
2022/10/03 13:17:56;;;;;;;0.47;0.20;;;;;;;-145.06;24.23;60892.56;4885840;28;20089;-92
2022/10/03 13:20:44;;;;;;;0.75;0.30;;;;;;;-145.06;24.23;60892.56;4889436;28;20036;-91
2022/10/03 13:23:31;;;;;;;1.60;0.32;;;;;;;19.54;24.23;60892.56;4888583;28;20024;-91
2022/10/03 13:26:26;;;;;;;0.90;0.30;;;;;;;19.78;24.23;60892.56;4887530;28;20628;-92
2022/10/03 13:29:28;;;;;;;0.47;0.30;;;;;;;-145.06;24.23;60892.56;4886919;28;20363;-92
2022/10/03 13:32:31;;;;;;;0.50;0.30;;;;;;;-145.06;24.23;60892.56;4885690;28;20028;-91
2022/10/03 13:38:45;;;;;;;0.50;0.20;;;;;;;-145.06;24.23;60892.56;4892745;28;20057;-92
2022/10/03 13:41:29;;;;;;;0.60;0.25;;;;;;;-145.06;24.23;60892.56;4878912;28;20237;-91
2022/10/03 13:44:16;;;;;;;0.73;0.20;;;;;;;-145.06;24.23;60892.56;4892580;28;20055;-92
2022/10/03 13:47:19;;;;;;;0.63;0.20;;;;;;;-145.06;24.23;60892.56;4887148;28;20021;-92
2022/10/03 13:50:01;;;;;;;0.77;0.40;;;;;;;-145.06;24.23;60892.56;4882169;28;20387;-91
2022/10/03 13:52:41;;;;;;;0.50;0.20;;;;;;;-145.06;24.23;60892.56;4887832;28;20028;-92
2022/10/03 13:55:25;;;;;;;0.50;0.30;;;;;;;-145.06;24.23;60892.56;4888490;28;20033;-92
2022/10/03 13:58:42;;;;;;;0.30;0.20;;;;;;;-145.06;24.23;60892.56;4882061;28;20036;-93
2022/10/03 14:01:34;;;;;;;0.43;0.20;;;;;;;-145.06;24.23;60892.56;4876517;28;20029;-90
2022/10/03 14:04:33;;;;;;;0.40;0.20;;;;;;;187.52;24.23;60892.56;4874057;28;20028;-92
2022/10/03 14:07:17;;;;;;;1.00;0.30;;;;;;;-145.06;24.23;60892.56;4894841;28;20056;-92